Time;durP1;ratioP1;P1;durP2;ratioP2;P2;SDS_P1;SDS_P2;PMS_P1;PMS_P2;Temp;Humidity;BMP_temperature;BMP_pressure;BME280_temperature;BME280_humidity;BME280_pressure;Samples;Min_cycle;Max_cycle;Signal;HPM_P1;HPM_P2
2023/06/09 00:01:35;;;;;;;8.57;6.00;;;;;;;;;;5045926;28;20012;-66
2023/06/09 00:04:06;;;;;;;7.07;5.53;;;;;;;;;;5041600;28;20041;-66
2023/06/09 00:06:32;;;;;;;6.70;5.82;;;;;;;;;;5033892;28;20439;-66
2023/06/09 00:08:57;;;;;;;9.10;5.72;;;;;;;;;;5033101;28;20018;-67
2023/06/09 00:11:23;;;;;;;7.60;5.68;;;;;;;;;;5034578;28;20026;-66
2023/06/09 00:13:49;;;;;;;9.90;5.95;;;;;;;;;;5034589;28;20139;-66
2023/06/09 00:16:15;;;;;;;10.55;6.07;;;;;;;;;;5034603;28;20029;-66
2023/06/09 00:18:43;;;;;;;8.27;6.00;;;;;;;;;;5034493;28;20034;-66
2023/06/09 00:21:09;;;;;;;9.00;6.10;;;;;;;;;;5034629;28;20098;-66
2023/06/09 00:23:35;;;;;;;7.32;5.97;;;;;;;;;;5017163;28;20030;-66
2023/06/09 00:26:00;;;;;;;8.15;5.57;;;;;;;;;;5034890;28;20021;-67
2023/06/09 00:28:26;;;;;;;9.35;5.68;;;;;;;;;;5035057;28;20034;-67
2023/06/09 00:30:51;;;;;;;8.25;5.32;;;;;;;;;;5033861;28;20381;-67
2023/06/09 00:33:18;;;;;;;10.25;6.50;;;;;;;;;;5034197;28;20025;-66
2023/06/09 00:35:43;;;;;;;6.15;5.50;;;;;;;;;;5034671;28;20029;-66
2023/06/09 00:38:09;;;;;;;9.25;5.38;;;;;;;;;;5034853;28;20053;-66
2023/06/09 00:40:34;;;;;;;7.32;5.40;;;;;;;;;;5034647;28;20025;-66
2023/06/09 00:43:00;;;;;;;7.53;5.60;;;;;;;;;;5034504;28;20040;-66
2023/06/09 00:45:27;;;;;;;6.97;5.90;;;;;;;;;;5034497;28;20117;-66
2023/06/09 00:47:54;;;;;;;6.75;5.70;;;;;;;;;;5034406;28;20033;-67
2023/06/09 00:50:20;;;;;;;8.13;5.57;;;;;;;;;;5034349;28;20481;-66
2023/06/09 00:52:48;;;;;;;7.93;5.95;;;;;;;;;;5034641;28;20036;-66
2023/06/09 00:55:16;;;;;;;9.18;5.68;;;;;;;;;;5034406;28;20031;-67
2023/06/09 00:57:43;;;;;;;8.07;5.55;;;;;;;;;;5034485;28;20026;-66
2023/06/09 01:00:11;;;;;;;10.45;5.90;;;;;;;;;;5034458;28;20109;-67
2023/06/09 01:02:37;;;;;;;7.63;5.55;;;;;;;;;;5034065;28;20026;-66
2023/06/09 01:05:04;;;;;;;9.30;5.57;;;;;;;;;;5034103;28;20033;-66
2023/06/09 01:07:57;;;;;;;7.32;5.40;;;;;;;;;;5033966;28;20473;-66
2023/06/09 01:10:23;;;;;;;10.00;5.10;;;;;;;;;;5033884;28;20062;-66
2023/06/09 01:13:09;;;;;;;7.25;5.65;;;;;;;;;;5033873;28;20048;-66
2023/06/09 01:15:44;;;;;;;5.75;4.88;;;;;;;;;;5033845;28;20087;-66
2023/06/09 01:18:14;;;;;;;8.50;5.60;;;;;;;;;;5033828;28;20060;-66
2023/06/09 01:20:56;;;;;;;7.00;5.50;;;;;;;;;;5033727;28;20021;-67
2023/06/09 01:23:34;;;;;;;6.75;5.28;;;;;;;;;;5033757;28;20040;-67
2023/06/09 01:26:01;;;;;;;7.03;5.50;;;;;;;;;;5033714;28;20456;-66
2023/06/09 01:28:28;;;;;;;6.00;5.03;;;;;;;;;;5033750;28;20500;-67
2023/06/09 01:30:55;;;;;;;8.77;5.55;;;;;;;;;;5033850;28;20036;-66
2023/06/09 01:33:24;;;;;;;6.65;5.40;;;;;;;;;;5033817;28;20033;-67
2023/06/09 01:35:51;;;;;;;9.18;5.72;;;;;;;;;;5033805;28;20388;-67
2023/06/09 01:38:19;;;;;;;7.82;5.45;;;;;;;;;;5033812;28;20103;-67
2023/06/09 01:40:45;;;;;;;6.95;5.40;;;;;;;;;;5033748;28;20034;-67
2023/06/09 01:43:11;;;;;;;6.40;5.05;;;;;;;;;;5032837;28;20108;-67
2023/06/09 01:45:36;;;;;;;7.63;5.72;;;;;;;;;;5033636;28;20099;-67
2023/06/09 01:48:09;;;;;;;6.40;5.45;;;;;;;;;;5033632;28;20461;-66
2023/06/09 01:50:44;;;;;;;6.55;5.68;;;;;;;;;;5033501;28;20025;-66
2023/06/09 01:53:14;;;;;;;9.02;5.00;;;;;;;;;;5033286;28;20544;-66
2023/06/09 01:55:47;;;;;;;8.85;5.40;;;;;;;;;;5033123;28;20025;-66
2023/06/09 01:58:19;;;;;;;7.18;5.53;;;;;;;;;;5033151;28;20033;-66
2023/06/09 02:00:47;;;;;;;5.40;4.90;;;;;;;;;;5031851;28;20091;-66
2023/06/09 02:03:16;;;;;;;7.03;5.53;;;;;;;;;;5033075;28;20515;-66
2023/06/09 02:05:44;;;;;;;6.00;5.15;;;;;;;;;;5033377;28;20026;-66
2023/06/09 02:08:10;;;;;;;6.55;5.20;;;;;;;;;;5032938;28;20538;-66
2023/06/09 02:10:37;;;;;;;6.43;4.82;;;;;;;;;;5032759;28;20053;-66
2023/06/09 02:13:17;;;;;;;5.90;5.28;;;;;;;;;;5033235;28;20049;-66
2023/06/09 02:15:44;;;;;;;7.63;5.43;;;;;;;;;;5033089;28;20036;-66
2023/06/09 02:18:12;;;;;;;5.63;5.03;;;;;;;;;;5033068;28;20034;-66
2023/06/09 02:20:40;;;;;;;6.85;5.65;;;;;;;;;;5032958;28;20025;-66
2023/06/09 02:23:06;;;;;;;5.82;5.18;;;;;;;;;;5032757;28;20036;-66
2023/06/09 02:25:32;;;;;;;5.80;4.82;;;;;;;;;;5032616;28;20025;-66
2023/06/09 02:28:01;;;;;;;6.47;4.93;;;;;;;;;;5032872;28;20026;-66
2023/06/09 02:30:27;;;;;;;6.13;4.93;;;;;;;;;;5032762;28;20458;-66
2023/06/09 02:32:53;;;;;;;8.45;5.40;;;;;;;;;;5032534;28;20033;-67
2023/06/09 02:35:18;;;;;;;7.55;5.10;;;;;;;;;;5032864;28;20030;-67
2023/06/09 02:37:44;;;;;;;7.07;5.07;;;;;;;;;;5032411;28;20044;-67
2023/06/09 02:40:10;;;;;;;7.53;5.15;;;;;;;;;;5032407;28;20481;-67
2023/06/09 02:42:36;;;;;;;5.65;5.15;;;;;;;;;;5032387;28;20033;-67
2023/06/09 02:45:02;;;;;;;5.15;4.65;;;;;;;;;;5032408;28;20029;-66
2023/06/09 02:47:27;;;;;;;6.68;5.20;;;;;;;;;;5032638;28;20370;-66
2023/06/09 02:49:53;;;;;;;7.80;5.47;;;;;;;;;;5032338;28;20091;-66
2023/06/09 02:52:20;;;;;;;6.68;5.25;;;;;;;;;;5032302;28;20029;-66
2023/06/09 02:54:45;;;;;;;7.53;5.30;;;;;;;;;;5038031;28;20064;-66
2023/06/09 02:57:13;;;;;;;9.05;5.43;;;;;;;;;;5038960;28;20033;-66
2023/06/09 02:59:39;;;;;;;6.50;5.07;;;;;;;;;;5038994;28;20033;-66
2023/06/09 03:02:05;;;;;;;5.80;4.82;;;;;;;;;;5038926;28;20069;-66
2023/06/09 03:04:32;;;;;;;7.82;5.47;;;;;;;;;;5039204;28;20033;-65
2023/06/09 03:06:58;;;;;;;5.65;5.00;;;;;;;;;;5038774;28;20497;-66
2023/06/09 03:09:23;;;;;;;5.88;5.05;;;;;;;;;;5038561;28;20037;-66
2023/06/09 03:11:49;;;;;;;7.60;5.68;;;;;;;;;;5039085;28;20044;-66
2023/06/09 03:14:14;;;;;;;6.80;5.10;;;;;;;;;;5039162;28;20432;-66
2023/06/09 03:16:40;;;;;;;5.40;4.90;;;;;;;;;;5038752;28;20017;-66
2023/06/09 03:19:07;;;;;;;5.32;4.72;;;;;;;;;;5039074;28;20029;-66
2023/06/09 03:21:35;;;;;;;6.07;4.80;;;;;;;;;;5038723;28;20087;-66
2023/06/09 03:24:03;;;;;;;6.05;5.22;;;;;;;;;;5038741;28;20113;-66
2023/06/09 03:26:29;;;;;;;5.40;4.90;;;;;;;;;;5038660;28;20022;-66
2023/06/09 03:28:54;;;;;;;7.32;5.00;;;;;;;;;;5038864;28;20034;-66
2023/06/09 03:31:20;;;;;;;5.47;4.97;;;;;;;;;;5038594;28;20500;-66
2023/06/09 03:33:45;;;;;;;5.70;4.68;;;;;;;;;;5038623;28;20018;-66
2023/06/09 03:36:11;;;;;;;5.60;4.88;;;;;;;;;;5038881;28;20030;-66
2023/06/09 03:38:36;;;;;;;6.85;5.20;;;;;;;;;;5038650;28;20393;-66
2023/06/09 03:41:05;;;;;;;6.85;5.47;;;;;;;;;;5037635;28;20026;-66
2023/06/09 03:43:31;;;;;;;6.40;5.20;;;;;;;;;;5038854;28;20369;-66
2023/06/09 03:45:56;;;;;;;5.32;4.82;;;;;;;;;;5038759;28;20033;-66
2023/06/09 03:48:22;;;;;;;6.80;4.75;;;;;;;;;;5038573;28;20033;-66
2023/06/09 03:50:47;;;;;;;7.00;4.88;;;;;;;;;;5038456;28;20037;-66
2023/06/09 03:53:13;;;;;;;5.82;5.22;;;;;;;;;;5038530;28;20025;-66
2023/06/09 03:55:38;;;;;;;9.10;5.05;;;;;;;;;;5038343;28;20021;-66
2023/06/09 03:58:05;;;;;;;6.38;4.93;;;;;;;;;;5038315;28;20024;-66
2023/06/09 04:00:30;;;;;;;5.90;5.03;;;;;;;;;;5038518;28;20024;-66
2023/06/09 04:02:56;;;;;;;6.97;4.75;;;;;;;;;;5038563;28;20384;-66
2023/06/09 04:05:22;;;;;;;5.45;4.60;;;;;;;;;;5036080;28;20017;-66
2023/06/09 04:07:48;;;;;;;6.00;4.85;;;;;;;;;;5035210;28;20029;-66
2023/06/09 04:10:13;;;;;;;6.45;4.72;;;;;;;;;;5034777;28;20045;-66
2023/06/09 04:12:41;;;;;;;5.65;4.93;;;;;;;;;;5035210;28;20083;-66
2023/06/09 04:15:08;;;;;;;8.18;4.78;;;;;;;;;;5035362;28;20033;-67
2023/06/09 04:17:36;;;;;;;5.90;4.80;;;;;;;;;;5035274;28;20064;-67
2023/06/09 04:20:04;;;;;;;6.47;5.07;;;;;;;;;;5035248;28;20412;-66
2023/06/09 04:22:30;;;;;;;5.15;4.50;;;;;;;;;;5035193;28;20091;-66
2023/06/09 04:24:56;;;;;;;5.28;4.78;;;;;;;;;;5034731;28;20029;-66
2023/06/09 04:27:23;;;;;;;5.80;5.00;;;;;;;;;;5034902;28;20029;-66
2023/06/09 04:29:50;;;;;;;5.30;4.80;;;;;;;;;;5034652;28;20021;-66
2023/06/09 04:32:16;;;;;;;6.57;4.88;;;;;;;;;;5035068;28;20026;-66
2023/06/09 04:34:45;;;;;;;5.22;4.72;;;;;;;;;;5034704;28;20018;-66
2023/06/09 04:37:12;;;;;;;5.32;4.72;;;;;;;;;;5034921;28;20060;-66
2023/06/09 04:39:41;;;;;;;5.20;4.70;;;;;;;;;;5035022;28;20017;-66
2023/06/09 04:42:07;;;;;;;5.75;4.72;;;;;;;;;;5034846;28;20076;-66
2023/06/09 04:44:33;;;;;;;5.05;4.55;;;;;;;;;;5034750;28;20489;-66
2023/06/09 04:47:02;;;;;;;5.47;4.78;;;;;;;;;;5034466;28;20040;-66
2023/06/09 04:49:30;;;;;;;6.65;4.90;;;;;;;;;;5034562;28;20030;-66
2023/06/09 04:51:57;;;;;;;5.85;4.50;;;;;;;;;;5034413;28;20108;-66
2023/06/09 04:54:25;;;;;;;5.25;4.43;;;;;;;;;;5034274;28;20029;-66
2023/06/09 04:56:57;;;;;;;6.13;4.70;;;;;;;;;;5034552;28;20029;-66
2023/06/09 04:59:24;;;;;;;5.35;4.60;;;;;;;;;;5034203;28;20034;-66
2023/06/09 05:01:52;;;;;;;5.25;4.75;;;;;;;;;;5034018;28;20049;-66
2023/06/09 05:04:18;;;;;;;5.38;4.88;;;;;;;;;;5034034;28;20421;-66
2023/06/09 05:06:44;;;;;;;7.85;5.32;;;;;;;;;;5034066;28;20033;-66
2023/06/09 05:09:10;;;;;;;5.10;4.60;;;;;;;;;;5033884;28;20026;-66
2023/06/09 05:11:36;;;;;;;5.30;4.78;;;;;;;;;;5033912;28;20022;-66
2023/06/09 05:14:02;;;;;;;5.97;4.82;;;;;;;;;;5033935;28;20484;-67
2023/06/09 05:16:28;;;;;;;5.00;4.45;;;;;;;;;;5033786;28;20030;-66
2023/06/09 05:18:57;;;;;;;5.90;4.57;;;;;;;;;;5033773;28;20025;-66
2023/06/09 05:21:26;;;;;;;5.40;4.83;;;;;;;;;;5034147;28;20030;-65
2023/06/09 05:23:52;;;;;;;6.95;4.72;;;;;;;;;;5033592;28;20548;-66
2023/06/09 05:26:19;;;;;;;5.45;4.75;;;;;;;;;;5033648;28;20025;-66
2023/06/09 05:28:45;;;;;;;5.28;4.65;;;;;;;;;;5032789;28;20044;-67
2023/06/09 05:31:14;;;;;;;7.22;4.70;;;;;;;;;;5033048;28;20025;-66
2023/06/09 05:33:40;;;;;;;5.30;4.80;;;;;;;;;;5032416;28;20132;-66
2023/06/09 05:36:06;;;;;;;5.55;4.90;;;;;;;;;;5031922;28;20030;-66
2023/06/09 05:38:31;;;;;;;5.07;4.35;;;;;;;;;;5031926;28;20029;-66
2023/06/09 05:40:57;;;;;;;5.18;4.70;;;;;;;;;;5032510;28;20021;-66
2023/06/09 05:43:29;;;;;;;5.65;5.15;;;;;;;;;;5032565;28;20014;-66
2023/06/09 05:45:56;;;;;;;5.22;4.72;;;;;;;;;;5032944;28;20029;-66
2023/06/09 05:48:22;;;;;;;5.85;4.35;;;;;;;;;;5033136;28;20152;-66
2023/06/09 05:50:48;;;;;;;7.30;5.00;;;;;;;;;;5033011;28;20497;-66
2023/06/09 05:53:15;;;;;;;4.97;4.47;;;;;;;;;;5033123;28;20104;-66
2023/06/09 05:55:41;;;;;;;5.70;5.07;;;;;;;;;;5033099;28;20561;-66
2023/06/09 05:58:06;;;;;;;5.95;4.80;;;;;;;;;;5033390;28;20428;-66
2023/06/09 06:00:33;;;;;;;6.47;5.00;;;;;;;;;;5033057;28;20029;-67
2023/06/09 06:03:03;;;;;;;5.22;4.72;;;;;;;;;;5033560;28;20097;-66
2023/06/09 06:05:29;;;;;;;5.20;4.70;;;;;;;;;;5033319;28;20018;-66
2023/06/09 06:07:56;;;;;;;5.15;4.65;;;;;;;;;;5032533;28;20116;-66
2023/06/09 06:10:22;;;;;;;6.55;4.72;;;;;;;;;;5032123;28;20084;-66
2023/06/09 06:12:48;;;;;;;5.25;4.72;;;;;;;;;;5040498;28;20025;-66
2023/06/09 06:15:14;;;;;;;6.85;4.57;;;;;;;;;;5040829;28;20029;-66
2023/06/09 06:17:40;;;;;;;6.00;4.13;;;;;;;;;;5039611;28;20033;-67
2023/06/09 06:20:06;;;;;;;5.47;4.97;;;;;;;;;;5040497;28;20032;-66
2023/06/09 06:22:32;;;;;;;6.57;4.43;;;;;;;;;;5042845;28;20029;-67
2023/06/09 06:24:57;;;;;;;5.10;4.60;;;;;;;;;;5039746;28;20074;-68
2023/06/09 06:27:23;;;;;;;5.30;4.80;;;;;;;;;;5040910;28;20051;-67
2023/06/09 06:29:48;;;;;;;5.20;4.70;;;;;;;;;;5038332;28;20029;-67
2023/06/09 06:32:14;;;;;;;5.45;4.85;;;;;;;;;;5040820;28;20135;-67
2023/06/09 06:34:40;;;;;;;5.28;4.65;;;;;;;;;;5041992;28;20029;-67
2023/06/09 06:37:06;;;;;;;6.05;4.80;;;;;;;;;;5040241;28;20359;-66
2023/06/09 06:39:31;;;;;;;4.90;4.40;;;;;;;;;;5040315;28;21518;-67
2023/06/09 06:41:57;;;;;;;5.15;4.55;;;;;;;;;;5039244;28;20021;-67
2023/06/09 06:44:22;;;;;;;5.32;4.82;;;;;;;;;;5043145;28;20016;-67
2023/06/09 06:46:48;;;;;;;6.68;4.70;;;;;;;;;;5029906;28;20024;-67
2023/06/09 06:49:13;;;;;;;5.07;4.53;;;;;;;;;;5031972;28;20104;-68
2023/06/09 06:51:39;;;;;;;6.10;4.32;;;;;;;;;;5034746;28;20026;-67
2023/06/09 06:54:05;;;;;;;5.68;4.88;;;;;;;;;;5038912;28;20028;-67
2023/06/09 06:56:31;;;;;;;4.82;4.32;;;;;;;;;;5052153;28;20024;-67
2023/06/09 06:58:57;;;;;;;5.05;4.57;;;;;;;;;;5052365;28;20151;-67
2023/06/09 07:01:24;;;;;;;5.18;4.68;;;;;;;;;;5049195;28;20036;-68
2023/06/09 07:03:52;;;;;;;5.93;4.72;;;;;;;;;;5052096;28;20032;-68
2023/06/09 07:06:19;;;;;;;6.63;5.20;;;;;;;;;;5052379;28;20031;-68
2023/06/09 07:08:45;;;;;;;4.85;4.40;;;;;;;;;;5050867;28;20106;-68
2023/06/09 07:11:10;;;;;;;5.28;4.75;;;;;;;;;;5051064;28;20053;-67
2023/06/09 07:13:36;;;;;;;6.20;4.65;;;;;;;;;;5051953;28;20029;-67
2023/06/09 07:16:02;;;;;;;6.18;4.45;;;;;;;;;;5052038;28;20025;-67
2023/06/09 07:18:28;;;;;;;5.18;4.68;;;;;;;;;;5051995;28;20033;-67
2023/06/09 07:20:54;;;;;;;5.15;4.65;;;;;;;;;;5051937;28;20025;-68
2023/06/09 07:23:19;;;;;;;5.30;4.68;;;;;;;;;;5051943;28;20384;-68
2023/06/09 07:25:45;;;;;;;4.53;4.13;;;;;;;;;;5051866;28;20040;-68
2023/06/09 07:28:11;;;;;;;4.88;4.40;;;;;;;;;;5051841;28;20032;-68
2023/06/09 07:30:40;;;;;;;6.03;4.25;;;;;;;;;;5052060;28;20025;-68
2023/06/09 07:33:06;;;;;;;5.43;4.68;;;;;;;;;;5051806;28;20056;-68
2023/06/09 07:35:33;;;;;;;9.32;4.45;;;;;;;;;;5052111;28;20029;-68
2023/06/09 07:37:58;;;;;;;4.65;4.25;;;;;;;;;;5050880;28;20029;-68
2023/06/09 07:40:24;;;;;;;5.15;4.65;;;;;;;;;;5052543;28;20095;-67
2023/06/09 07:42:49;;;;;;;4.82;4.07;;;;;;;;;;5055533;28;20024;-68
2023/06/09 07:45:15;;;;;;;4.95;4.45;;;;;;;;;;5055563;28;20021;-68
2023/06/09 07:47:41;;;;;;;5.78;4.45;;;;;;;;;;5055412;28;20025;-67
2023/06/09 07:50:07;;;;;;;4.88;4.35;;;;;;;;;;5055402;28;20028;-68
2023/06/09 07:52:33;;;;;;;5.00;4.50;;;;;;;;;;5055348;28;20480;-68
2023/06/09 07:54:59;;;;;;;7.68;4.25;;;;;;;;;;5055778;28;20032;-67
2023/06/09 07:57:24;;;;;;;5.40;3.95;;;;;;;;;;5055240;28;20032;-68
2023/06/09 07:59:50;;;;;;;4.70;4.15;;;;;;;;;;5055676;28;20025;-68
2023/06/09 08:02:16;;;;;;;6.28;4.25;;;;;;;;;;5055179;28;20017;-67
2023/06/09 08:04:42;;;;;;;4.53;4.10;;;;;;;;;;5055472;28;20104;-67
2023/06/09 08:07:08;;;;;;;5.22;4.20;;;;;;;;;;5054132;28;20496;-67
2023/06/09 08:09:34;;;;;;;5.45;4.85;;;;;;;;;;5054968;28;20112;-68
2023/06/09 08:12:01;;;;;;;8.77;4.70;;;;;;;;;;5055262;28;20052;-67
2023/06/09 08:14:26;;;;;;;4.97;4.47;;;;;;;;;;5055258;28;20423;-68
2023/06/09 08:16:52;;;;;;;5.30;4.35;;;;;;;;;;5055214;28;20411;-67
2023/06/09 08:19:18;;;;;;;7.40;4.88;;;;;;;;;;5055232;28;20362;-67
2023/06/09 08:21:43;;;;;;;4.80;4.30;;;;;;;;;;5054902;28;20460;-67
2023/06/09 08:24:13;;;;;;;4.55;4.15;;;;;;;;;;5054819;28;20055;-68
2023/06/09 08:26:39;;;;;;;5.30;4.15;;;;;;;;;;5055160;28;20104;-67
2023/06/09 08:29:06;;;;;;;5.13;4.50;;;;;;;;;;5054663;28;20044;-67
2023/06/09 08:31:32;;;;;;;5.22;4.28;;;;;;;;;;5054598;28;20029;-67
2023/06/09 08:33:58;;;;;;;4.68;4.28;;;;;;;;;;5054602;28;20047;-67
2023/06/09 08:36:24;;;;;;;5.93;4.38;;;;;;;;;;5054454;28;20111;-67
2023/06/09 08:38:50;;;;;;;5.05;4.10;;;;;;;;;;5054572;28;20025;-67
2023/06/09 08:41:16;;;;;;;4.43;4.00;;;;;;;;;;5053482;28;20025;-67
2023/06/09 08:43:42;;;;;;;4.53;4.13;;;;;;;;;;5054444;28;20025;-67
2023/06/09 08:46:11;;;;;;;5.30;4.30;;;;;;;;;;5054413;28;20028;-67
2023/06/09 08:48:50;;;;;;;5.38;4.45;;;;;;;;;;5054336;28;20476;-67
2023/06/09 08:51:16;;;;;;;4.55;4.05;;;;;;;;;;5054027;28;20097;-67
2023/06/09 08:53:43;;;;;;;7.78;4.75;;;;;;;;;;5054268;28;20032;-67
2023/06/09 08:56:09;;;;;;;5.05;4.38;;;;;;;;;;5054374;28;20025;-67
2023/06/09 08:58:35;;;;;;;5.70;4.10;;;;;;;;;;5054116;28;20040;-67
2023/06/09 09:01:01;;;;;;;5.97;4.60;;;;;;;;;;5052798;28;20021;-67
2023/06/09 09:03:27;;;;;;;4.40;4.00;;;;;;;;;;5054422;28;20033;-67
2023/06/09 09:05:53;;;;;;;5.65;4.50;;;;;;;;;;5054053;28;20376;-67
2023/06/09 09:08:20;;;;;;;4.57;4.13;;;;;;;;;;5054266;28;20036;-67
2023/06/09 09:10:46;;;;;;;4.63;3.95;;;;;;;;;;5052506;28;20493;-67
2023/06/09 09:13:12;;;;;;;4.50;4.10;;;;;;;;;;5053996;28;20082;-67
2023/06/09 09:15:46;;;;;;;4.45;4.05;;;;;;;;;;5054090;28;20104;-67
2023/06/09 09:18:12;;;;;;;4.03;3.60;;;;;;;;;;5054148;28;20380;-67
2023/06/09 09:20:38;;;;;;;4.55;3.95;;;;;;;;;;5054067;28;20025;-67
2023/06/09 09:23:07;;;;;;;4.38;3.90;;;;;;;;;;5052534;28;20538;-67
2023/06/09 09:25:32;;;;;;;5.13;4.07;;;;;;;;;;5053925;28;20104;-67
2023/06/09 09:28:12;;;;;;;6.07;4.00;;;;;;;;;;5053621;28;20100;-67
2023/06/09 09:30:54;;;;;;;4.38;3.83;;;;;;;;;;5053431;28;20528;-67
2023/06/09 09:33:26;;;;;;;4.45;4.05;;;;;;;;;;5053913;28;20614;-67
2023/06/09 09:35:57;;;;;;;4.53;4.13;;;;;;;;;;5053414;28;20024;-67
2023/06/09 09:38:29;;;;;;;4.47;4.07;;;;;;;;;;5053360;28;20024;-67
2023/06/09 09:40:57;;;;;;;5.00;3.97;;;;;;;;;;5053332;28;20477;-67
2023/06/09 09:43:27;;;;;;;4.63;4.22;;;;;;;;;;5052059;28;20029;-67
2023/06/09 09:45:55;;;;;;;5.28;4.40;;;;;;;;;;5052642;28;20074;-67
2023/06/09 09:48:23;;;;;;;6.35;4.38;;;;;;;;;;5046442;28;20033;-67
2023/06/09 09:50:51;;;;;;;8.63;4.45;;;;;;;;;;5051515;28;20504;-67
2023/06/09 09:53:20;;;;;;;7.13;4.10;;;;;;;;;;5051611;28;20028;-67
2023/06/09 09:55:46;;;;;;;5.87;4.00;;;;;;;;;;5051562;28;20079;-67
2023/06/09 09:58:14;;;;;;;4.82;4.32;;;;;;;;;;5051365;28;20108;-67
2023/06/09 10:00:44;;;;;;;4.93;3.90;;;;;;;;;;5051599;28;20040;-67
2023/06/09 10:03:17;;;;;;;4.82;3.90;;;;;;;;;;5050449;28;20032;-67
2023/06/09 10:05:48;;;;;;;4.63;4.18;;;;;;;;;;5051309;28;20025;-67
2023/06/09 10:08:31;;;;;;;4.47;3.95;;;;;;;;;;5051233;28;20082;-68
2023/06/09 10:11:01;;;;;;;4.45;4.05;;;;;;;;;;5051062;28;20175;-68
2023/06/09 10:13:28;;;;;;;4.18;3.80;;;;;;;;;;5051142;28;20036;-67
2023/06/09 10:15:55;;;;;;;5.10;4.07;;;;;;;;;;5049860;28;20036;-67
2023/06/09 10:18:22;;;;;;;4.18;3.80;;;;;;;;;;5051291;28;20389;-67
2023/06/09 10:20:48;;;;;;;4.10;3.70;;;;;;;;;;5051015;28;20041;-67
2023/06/09 10:23:15;;;;;;;4.10;3.70;;;;;;;;;;5050889;28;20086;-67
2023/06/09 10:25:41;;;;;;;4.40;3.78;;;;;;;;;;5051248;28;20059;-68
2023/06/09 10:28:09;;;;;;;4.10;3.80;;;;;;;;;;5050819;28;20469;-68
2023/06/09 10:30:35;;;;;;;4.25;3.85;;;;;;;;;;5050851;28;20060;-68
2023/06/09 10:33:17;;;;;;;4.45;3.70;;;;;;;;;;5051211;28;20441;-68
2023/06/09 10:35:46;;;;;;;3.75;3.45;;;;;;;;;;5051059;28;20029;-67
2023/06/09 10:38:29;;;;;;;4.22;3.83;;;;;;;;;;5051283;28;20087;-68
2023/06/09 10:41:11;;;;;;;4.47;4.07;;;;;;;;;;5050665;28;20033;-67
2023/06/09 10:43:42;;;;;;;4.03;3.65;;;;;;;;;;5050961;28;20033;-67
2023/06/09 10:46:12;;;;;;;3.78;3.47;;;;;;;;;;5050649;28;20025;-67
2023/06/09 10:48:44;;;;;;;4.18;3.78;;;;;;;;;;5050739;28;20056;-67
2023/06/09 10:51:26;;;;;;;4.07;3.78;;;;;;;;;;5050540;28;20036;-67
2023/06/09 10:54:17;;;;;;;3.95;3.65;;;;;;;;;;5050631;28;20035;-67
2023/06/09 10:56:47;;;;;;;4.05;3.60;;;;;;;;;;5050624;28;20025;-67
2023/06/09 10:59:25;;;;;;;4.18;3.78;;;;;;;;;;5050820;28;20029;-67
2023/06/09 11:02:03;;;;;;;3.85;3.55;;;;;;;;;;5050540;28;20425;-68
2023/06/09 11:04:37;;;;;;;4.35;3.38;;;;;;;;;;5050605;28;20025;-67
2023/06/09 11:07:25;;;;;;;4.63;3.80;;;;;;;;;;5050457;28;20104;-67
2023/06/09 11:09:50;;;;;;;3.90;3.60;;;;;;;;;;5050358;28;20053;-67
2023/06/09 11:12:29;;;;;;;3.97;3.55;;;;;;;;;;5050430;28;20369;-67
2023/06/09 11:14:57;;;;;;;4.00;3.60;;;;;;;;;;5051815;28;20106;-67
2023/06/09 11:17:36;;;;;;;3.88;3.50;;;;;;;;;;5048820;28;20120;-67
2023/06/09 11:20:10;;;;;;;4.47;3.83;;;;;;;;;;5045617;28;20025;-67
2023/06/09 11:22:41;;;;;;;11.85;3.97;;;;;;;;;;5033183;28;20028;-67
2023/06/09 11:25:22;;;;;;;4.65;3.70;;;;;;;;;;5044086;28;20059;-67
2023/06/09 11:28:07;;;;;;;4.40;4.00;;;;;;;;;;5050351;28;20025;-67
2023/06/09 11:30:33;;;;;;;3.90;3.60;;;;;;;;;;5039598;28;20518;-66
2023/06/09 11:33:06;;;;;;;4.35;3.65;;;;;;;;;;5048235;28;20060;-67
2023/06/09 11:35:32;;;;;;;7.30;3.60;;;;;;;;;;5054097;28;20029;-67
2023/06/09 11:38:05;;;;;;;5.35;3.75;;;;;;;;;;5054492;28;20032;-67
2023/06/09 11:40:57;;;;;;;4.72;3.35;;;;;;;;;;5054057;28;20115;-66
2023/06/09 11:43:25;;;;;;;4.07;3.67;;;;;;;;;;5052032;28;20095;-66
2023/06/09 11:46:00;;;;;;;4.10;3.80;;;;;;;;;;5051388;28;20125;-66
2023/06/09 11:48:26;;;;;;;4.20;3.80;;;;;;;;;;5054055;28;20052;-67
2023/06/09 11:50:51;;;;;;;6.25;3.40;;;;;;;;;;5053822;28;20071;-67
2023/06/09 11:53:24;;;;;;;4.47;3.50;;;;;;;;;;5054103;28;20029;-67
2023/06/09 11:56:06;;;;;;;4.00;3.70;;;;;;;;;;5053664;28;20044;-66
2023/06/09 11:58:31;;;;;;;5.53;3.60;;;;;;;;;;5054101;28;20647;-66
2023/06/09 12:00:57;;;;;;;4.18;3.78;;;;;;;;;;5053744;28;20021;-67
2023/06/09 12:03:23;;;;;;;4.90;3.65;;;;;;;;;;5052229;28;20037;-66
2023/06/09 12:05:50;;;;;;;4.85;3.80;;;;;;;;;;5053668;28;20155;-66
2023/06/09 12:08:16;;;;;;;3.85;3.30;;;;;;;;;;5053790;28;20377;-66
2023/06/09 12:10:42;;;;;;;3.63;3.33;;;;;;;;;;5053255;28;20049;-66
2023/06/09 12:13:07;;;;;;;3.65;3.35;;;;;;;;;;5053475;28;20025;-66
2023/06/09 12:15:33;;;;;;;4.22;3.83;;;;;;;;;;5053692;28;20095;-67
2023/06/09 12:18:03;;;;;;;4.00;3.60;;;;;;;;;;5053591;28;20039;-66
2023/06/09 12:20:33;;;;;;;3.78;3.47;;;;;;;;;;5053433;28;20045;-67
2023/06/09 12:23:12;;;;;;;3.42;3.13;;;;;;;;;;5051758;28;20167;-66
2023/06/09 12:25:48;;;;;;;3.95;3.63;;;;;;;;;;5052937;28;20021;-66
2023/06/09 12:28:29;;;;;;;3.85;3.55;;;;;;;;;;5053136;28;20404;-66
2023/06/09 12:30:57;;;;;;;3.67;3.35;;;;;;;;;;5053012;28;20106;-66
2023/06/09 12:33:25;;;;;;;3.70;3.30;;;;;;;;;;5053086;28;20029;-66
2023/06/09 12:35:53;;;;;;;4.03;3.13;;;;;;;;;;5052933;28;20056;-67
2023/06/09 12:38:24;;;;;;;3.72;3.28;;;;;;;;;;5053256;28;20029;-66
2023/06/09 12:40:52;;;;;;;3.95;3.50;;;;;;;;;;5052969;28;20036;-66
2023/06/09 12:43:20;;;;;;;3.83;3.47;;;;;;;;;;5052845;28;20041;-67
2023/06/09 12:45:53;;;;;;;4.60;3.47;;;;;;;;;;5052720;28;20033;-67
2023/06/09 12:48:19;;;;;;;4.55;3.42;;;;;;;;;;5053169;28;20047;-66
2023/06/09 12:50:44;;;;;;;4.78;3.22;;;;;;;;;;5052660;28;20480;-66
2023/06/09 12:53:12;;;;;;;3.80;3.50;;;;;;;;;;5052647;28;20036;-67
2023/06/09 12:55:38;;;;;;;3.50;3.20;;;;;;;;;;5049670;28;20082;-66
2023/06/09 12:58:05;;;;;;;3.67;3.38;;;;;;;;;;5052635;28;20476;-67
2023/06/09 13:00:31;;;;;;;3.95;3.55;;;;;;;;;;5052531;28;20048;-67
2023/06/09 13:02:57;;;;;;;3.90;3.53;;;;;;;;;;5052772;28;20021;-66
2023/06/09 13:05:30;;;;;;;3.80;3.40;;;;;;;;;;5052553;28;20354;-66
2023/06/09 13:07:59;;;;;;;3.97;3.60;;;;;;;;;;5052434;28;20107;-66
2023/06/09 13:10:26;;;;;;;3.53;3.22;;;;;;;;;;5052262;28;20523;-66
2023/06/09 13:12:52;;;;;;;3.63;3.33;;;;;;;;;;5051131;28;20036;-66
2023/06/09 13:15:19;;;;;;;4.25;3.85;;;;;;;;;;5048265;28;20028;-66
2023/06/09 13:17:45;;;;;;;8.07;3.85;;;;;;;;;;5042010;28;20167;-66
2023/06/09 13:20:12;;;;;;;4.97;3.50;;;;;;;;;;5052296;28;20025;-66
2023/06/09 13:22:37;;;;;;;3.78;3.47;;;;;;;;;;5052186;28;20118;-66
2023/06/09 13:25:03;;;;;;;3.78;3.47;;;;;;;;;;5052488;28;20068;-66
2023/06/09 13:27:29;;;;;;;3.72;3.42;;;;;;;;;;5052037;28;20055;-67
2023/06/09 13:29:54;;;;;;;3.60;3.30;;;;;;;;;;5052022;28;20418;-66
2023/06/09 13:32:20;;;;;;;3.95;3.55;;;;;;;;;;5052040;28;20484;-66
2023/06/09 13:34:46;;;;;;;3.75;3.45;;;;;;;;;;5051867;28;20465;-66
2023/06/09 13:37:11;;;;;;;3.83;3.53;;;;;;;;;;5051862;28;20031;-67
2023/06/09 13:39:37;;;;;;;4.90;3.70;;;;;;;;;;5051902;28;20033;-67
2023/06/09 13:42:03;;;;;;;3.70;3.40;;;;;;;;;;5051786;28;20075;-66
2023/06/09 13:44:28;;;;;;;3.53;3.22;;;;;;;;;;5052028;28;20112;-67
2023/06/09 13:46:54;;;;;;;3.97;3.58;;;;;;;;;;5052059;28;20484;-67
2023/06/09 13:49:20;;;;;;;5.28;4.10;;;;;;;;;;5050352;28;20562;-67
2023/06/09 13:51:45;;;;;;;4.18;3.45;;;;;;;;;;5050032;28;20703;-67
2023/06/09 13:54:11;;;;;;;3.50;3.20;;;;;;;;;;5048021;28;20029;-66
2023/06/09 13:56:36;;;;;;;3.90;3.60;;;;;;;;;;5051451;28;20029;-67
2023/06/09 13:59:02;;;;;;;4.00;3.70;;;;;;;;;;5051922;28;20033;-67
2023/06/09 14:01:28;;;;;;;4.00;3.70;;;;;;;;;;5051463;28;20388;-66
2023/06/09 14:03:54;;;;;;;4.88;3.47;;;;;;;;;;5051768;28;20097;-67
2023/06/09 14:06:20;;;;;;;4.55;3.50;;;;;;;;;;5051645;28;20484;-67
2023/06/09 14:08:45;;;;;;;4.38;3.70;;;;;;;;;;5051426;28;20029;-67
2023/06/09 14:11:11;;;;;;;3.88;3.50;;;;;;;;;;5051041;28;20048;-67
2023/06/09 14:13:36;;;;;;;3.80;3.47;;;;;;;;;;5051346;28;20104;-67
2023/06/09 14:16:02;;;;;;;3.75;3.40;;;;;;;;;;5051290;28;20098;-67
2023/06/09 14:18:28;;;;;;;3.72;3.30;;;;;;;;;;5051402;28;20052;-67
2023/06/09 14:20:53;;;;;;;5.05;3.75;;;;;;;;;;5050153;28;20033;-67
2023/06/09 14:23:19;;;;;;;4.32;3.92;;;;;;;;;;5049950;28;20374;-67
2023/06/09 14:25:44;;;;;;;3.67;3.38;;;;;;;;;;5050594;28;20036;-67
2023/06/09 14:28:10;;;;;;;4.15;3.78;;;;;;;;;;5050875;28;20376;-67
2023/06/09 14:30:35;;;;;;;3.63;3.33;;;;;;;;;;5050718;28;20028;-67
2023/06/09 14:33:01;;;;;;;3.67;3.38;;;;;;;;;;5051157;28;20044;-67
2023/06/09 14:35:27;;;;;;;3.58;3.28;;;;;;;;;;5051163;28;20112;-67
2023/06/09 14:37:56;;;;;;;3.67;3.38;;;;;;;;;;5050728;28;20543;-67
2023/06/09 14:40:23;;;;;;;3.75;3.45;;;;;;;;;;5050807;28;20625;-67
2023/06/09 14:42:49;;;;;;;3.90;3.60;;;;;;;;;;5049729;28;20029;-67
2023/06/09 14:45:20;;;;;;;7.55;3.25;;;;;;;;;;5050666;28;20086;-67
2023/06/09 14:47:54;;;;;;;3.55;3.25;;;;;;;;;;5050709;28;20100;-66